Krsko, Slovenia
Current Conditions -  °F | °C
As of 12:00 AM on Thursday 29 Jan 2015 (Local Time) from LJCE Reporting Station
Clear Clear  
Wind Chill: 27°   Ceiling: Unl
Heat Index: 27°   Visibility: 5mi
Dew Point: 25°   Wind: 3mph
Humidity: 93%   Direction: 160°SSE
Pressure: 29.85"   Gusts: NA
Location:  45.96°N, 15.49°E
Report Text: LJCE 282200Z AUTO 16003KT 8000 NSC M03/M04 Q1011
Loading
Personal Weather Stations






























Interactive Weather Map New forecast layout! Learn more

10-Day Weather Forecast

Advertisements
Track Severe Weather on mobile